Time;durP1;ratioP1;P1;durP2;ratioP2;P2;SDS_P1;SDS_P2;PMS_P1;PMS_P2;Temp;Humidity;BMP_temperature;BMP_pressure;BME280_temperature;BME280_humidity;BME280_pressure;Samples;Min_cycle;Max_cycle;Signal;HPM_P1;HPM_P2
2022/03/23 00:00:40;;;;;;;17.07;15.37;;;7.20;42.90;;;;;;4984307;28;20247;-65
2022/03/23 00:03:05;;;;;;;16.77;15.17;;;7.10;43.60;;;;;;4994160;28;20191;-66
2022/03/23 00:05:32;;;;;;;17.80;16.00;;;6.90;44.50;;;;;;4992727;28;20188;-67
2022/03/23 00:07:58;;;;;;;18.77;16.77;;;6.80;45.50;;;;;;4992311;28;20462;-66
2022/03/23 00:10:24;;;;;;;17.00;15.20;;;6.80;45.50;;;;;;4990823;28;20181;-67
2022/03/23 00:12:51;;;;;;;17.20;15.50;;;6.70;45.70;;;;;;4991150;28;20191;-65
2022/03/23 00:15:16;;;;;;;17.25;15.55;;;6.60;45.70;;;;;;4991426;28;20475;-67
2022/03/23 00:17:42;;;;;;;16.47;14.93;;;6.60;45.50;;;;;;4991254;28;20190;-67
2022/03/23 00:20:09;;;;;;;15.80;14.30;;;6.60;45.50;;;;;;4990160;28;21084;-67
2022/03/23 00:22:34;;;;;;;16.50;14.82;;;6.60;45.30;;;;;;4991290;28;20184;-67
2022/03/23 00:25:00;;;;;;;15.93;14.23;;;6.50;45.50;;;;;;4991637;28;20188;-67
2022/03/23 00:27:26;;;;;;;15.63;14.13;;;6.50;45.50;;;;;;4991069;28;20186;-67
2022/03/23 00:29:51;;;;;;;15.75;14.20;;;6.50;45.30;;;;;;4990535;28;20212;-67
2022/03/23 00:32:17;;;;;;;16.03;14.53;;;6.60;44.80;;;;;;4991382;28;20546;-67
2022/03/23 00:34:43;;;;;;;16.83;15.17;;;6.50;45.10;;;;;;4989579;28;20198;-67
2022/03/23 00:37:09;;;;;;;16.33;14.80;;;6.50;44.90;;;;;;4989291;28;20181;-65
2022/03/23 00:39:35;;;;;;;16.02;14.52;;;6.50;44.40;;;;;;4990064;28;20180;-67
2022/03/23 00:42:00;;;;;;;15.03;13.63;;;6.60;44.00;;;;;;4991646;28;20981;-65
2022/03/23 00:44:26;;;;;;;17.87;16.07;;;6.80;43.30;;;;;;4996756;28;20196;-67
2022/03/23 00:46:51;;;;;;;17.13;15.33;;;6.80;43.50;;;;;;5002422;28;20224;-66
2022/03/23 00:49:17;;;;;;;16.70;15.00;;;6.70;42.80;;;;;;4990832;28;20200;-67
2022/03/23 00:51:43;;;;;;;15.03;13.63;;;6.80;42.70;;;;;;4991470;28;20189;-67
2022/03/23 00:54:09;;;;;;;15.40;13.80;;;6.70;43.10;;;;;;4994219;28;20515;-67
2022/03/23 00:56:38;;;;;;;15.80;14.38;;;6.70;43.20;;;;;;4983110;28;20423;-67
2022/03/23 00:59:07;;;;;;;16.20;14.60;;;6.60;43.00;;;;;;4990627;28;20204;-68
2022/03/23 01:01:33;;;;;;;16.40;14.65;;;6.60;43.00;;;;;;4991971;28;20177;-68
2022/03/23 01:03:58;;;;;;;16.57;14.50;;;6.70;42.90;;;;;;4988286;28;20190;-67
2022/03/23 01:06:24;;;;;;;18.20;14.70;;;6.60;43.00;;;;;;4991361;28;20184;-68
2022/03/23 01:08:49;;;;;;;15.37;13.87;;;6.70;43.30;;;;;;4989212;28;20298;-66
2022/03/23 01:11:15;;;;;;;15.30;13.80;;;6.60;43.40;;;;;;4991204;28;20259;-65
2022/03/23 01:13:41;;;;;;;16.20;14.50;;;6.60;43.50;;;;;;4989331;28;20234;-68
2022/03/23 01:16:06;;;;;;;16.73;14.93;;;6.50;44.00;;;;;;4990993;28;20173;-68
2022/03/23 01:18:32;;;;;;;15.20;13.70;;;6.40;44.30;;;;;;4990448;28;20188;-67
2022/03/23 01:21:00;;;;;;;16.60;14.90;;;6.30;44.70;;;;;;4991740;28;20194;-67
2022/03/23 01:23:26;;;;;;;16.48;14.88;;;6.30;45.00;;;;;;4989906;28;20475;-66
2022/03/23 01:25:52;;;;;;;14.97;13.67;;;6.30;45.30;;;;;;4992692;28;20319;-67
2022/03/23 01:28:17;;;;;;;16.07;14.43;;;6.20;45.50;;;;;;4988443;28;20615;-68
2022/03/23 01:30:43;;;;;;;15.87;14.27;;;6.10;45.70;;;;;;4991907;28;20224;-68
2022/03/23 01:33:09;;;;;;;17.97;15.47;;;6.10;46.30;;;;;;4992531;28;20184;-68
2022/03/23 01:35:34;;;;;;;15.70;14.20;;;6.00;46.10;;;;;;4991498;28;20203;-68
2022/03/23 01:38:00;;;;;;;16.97;15.20;;;5.90;46.40;;;;;;4989753;28;20555;-65
2022/03/23 01:40:25;;;;;;;16.33;14.67;;;5.80;46.60;;;;;;4991506;28;20192;-67
2022/03/23 01:42:51;;;;;;;15.67;14.10;;;5.80;46.90;;;;;;4991191;28;20534;-67
2022/03/23 01:45:17;;;;;;;15.43;13.83;;;5.70;47.10;;;;;;4990790;28;20275;-67
2022/03/23 01:47:43;;;;;;;15.63;14.03;;;5.70;47.60;;;;;;4993750;28;20221;-67
2022/03/23 01:50:09;;;;;;;16.27;14.53;;;5.60;47.60;;;;;;4991054;28;20180;-67
2022/03/23 01:52:35;;;;;;;15.90;14.25;;;5.60;47.90;;;;;;4991059;28;20451;-67
2022/03/23 01:55:06;;;;;;;15.38;13.75;;;5.60;48.00;;;;;;4995410;28;20706;-69
2022/03/23 01:57:33;;;;;;;16.58;14.98;;;5.60;47.90;;;;;;4990701;28;20184;-68
2022/03/23 01:59:59;;;;;;;15.23;13.73;;;5.60;48.00;;;;;;4985735;28;20717;-68
2022/03/23 02:02:25;;;;;;;16.47;14.07;;;5.50;47.90;;;;;;4990889;28;20215;-68
2022/03/23 02:04:50;;;;;;;17.33;15.53;;;5.50;48.30;;;;;;4991474;28;20191;-68
2022/03/23 02:07:16;;;;;;;16.07;14.37;;;5.40;48.10;;;;;;4990487;28;20182;-68
2022/03/23 02:09:41;;;;;;;16.97;15.37;;;5.40;48.40;;;;;;4990187;28;20559;-68
2022/03/23 02:12:08;;;;;;;15.63;13.87;;;5.40;47.10;;;;;;4989975;28;20196;-68
2022/03/23 02:14:37;;;;;;;15.70;14.10;;;5.30;99.90;;;;;;4990840;28;20559;-68
2022/03/23 02:17:03;;;;;;;17.02;14.15;;;5.20;99.90;;;;;;4990935;28;20184;-68
2022/03/23 02:19:29;;;;;;;16.42;14.73;;;5.20;1.00;;;;;;4990256;28;20192;-68
2022/03/23 02:21:55;;;;;;;16.27;14.20;;;5.10;1.00;;;;;;4989485;28;20270;-67
2022/03/23 02:24:25;;;;;;;17.17;14.70;;;5.00;1.00;;;;;;4987936;28;20275;-68
2022/03/23 02:26:52;;;;;;;16.30;14.77;;;4.90;1.00;;;;;;4980179;28;20189;-68
2022/03/23 02:29:24;;;;;;;14.90;13.38;;;4.80;1.00;;;;;;4989204;28;20259;-68
2022/03/23 02:31:50;;;;;;;16.75;14.80;;;4.80;1.00;;;;;;4971268;28;20184;-68
2022/03/23 02:34:17;;;;;;;16.55;13.77;;;4.70;1.00;;;;;;4990863;28;20218;-67
2022/03/23 02:36:42;;;;;;;16.63;14.80;;;4.70;1.00;;;;;;4988364;28;20868;-68
2022/03/23 02:39:08;;;;;;;18.47;15.10;;;4.60;1.00;;;;;;4989602;28;20195;-67
2022/03/23 02:41:34;;;;;;;15.73;14.10;;;4.50;1.00;;;;;;4988796;28;20442;-67
2022/03/23 02:44:02;;;;;;;17.00;14.13;;;4.40;1.00;;;;;;4988575;28;20274;-67
2022/03/23 02:46:35;;;;;;;16.27;14.70;;;4.40;1.00;;;;;;4984836;28;20315;-67
2022/03/23 02:49:02;;;;;;;17.23;14.55;;;4.30;13.20;;;;;;4977985;28;20208;-66
2022/03/23 02:51:28;;;;;;;16.10;14.55;;;4.30;28.50;;;;;;4989949;28;20192;-68
2022/03/23 03:02:42;;;;;;;14.82;13.32;;;4.00;99.90;;;;;;4989870;28;20191;-67
2022/03/23 03:05:10;;;;;;;16.27;14.20;;;4.00;99.90;;;;;;4990571;28;20643;-66
2022/03/23 03:10:22;;;;;;;16.27;14.60;;;3.90;99.90;;;;;;4991572;28;20235;-65
2022/03/23 03:12:49;;;;;;;15.43;13.93;;;3.80;99.90;;;;;;4993186;28;20550;-66
2022/03/23 03:15:16;;;;;;;16.20;14.48;;;3.80;99.90;;;;;;4986881;28;20228;-66
2022/03/23 03:17:42;;;;;;;16.17;14.10;;;3.70;1.00;;;;;;4969846;28;20196;-66
2022/03/23 03:20:08;;;;;;;16.47;13.77;;;3.70;1.00;;;;;;4990843;28;20180;-63
2022/03/23 03:22:36;;;;;;;15.50;13.90;;;3.60;99.90;;;;;;4992162;28;20443;-65
2022/03/23 03:25:02;;;;;;;15.73;14.00;;;3.60;99.90;;;;;;4990580;28;20781;-66
2022/03/23 03:27:30;;;;;;;16.35;13.88;;;3.60;99.90;;;;;;4993317;28;20180;-66
2022/03/23 03:29:56;;;;;;;16.05;14.40;;;3.60;99.90;;;;;;4991558;28;20709;-66
2022/03/23 03:32:22;;;;;;;16.00;14.33;;;3.60;1.00;;;;;;4990908;28;20188;-66
2022/03/23 03:34:48;;;;;;;15.77;14.13;;;3.50;99.90;;;;;;4991877;28;20180;-66
2022/03/23 03:37:13;;;;;;;18.53;14.33;;;3.50;99.90;;;;;;4993336;28;20910;-65
2022/03/23 03:39:39;;;;;;;15.63;14.00;;;3.50;99.90;;;;;;4993092;28;20184;-67
2022/03/23 03:42:05;;;;;;;17.93;13.80;;;3.50;99.90;;;;;;4991416;28;20443;-67
2022/03/23 03:44:30;;;;;;;16.37;14.70;;;3.40;36.20;;;;;;4991281;28;20295;-67
2022/03/23 03:46:56;;;;;;;15.67;14.07;;;3.30;63.00;;;;;;4991692;28;20443;-67
2022/03/23 03:49:22;;;;;;;15.13;13.53;;;3.30;98.00;;;;;;4991866;28;20722;-67
2022/03/23 03:51:48;;;;;;;15.43;13.85;;;3.20;73.40;;;;;;4992709;28;20615;-67
2022/03/23 03:54:13;;;;;;;15.90;14.20;;;3.20;77.10;;;;;;4990591;28;20200;-66
2022/03/23 03:56:39;;;;;;;14.77;13.20;;;3.10;87.80;;;;;;4994503;28;20259;-67
2022/03/23 03:59:05;;;;;;;15.60;14.10;;;3.10;99.90;;;;;;4992295;28;20192;-66
2022/03/23 04:01:30;;;;;;;15.90;13.73;;;3.10;99.90;;;;;;4991273;28;20619;-67
2022/03/23 04:03:56;;;;;;;15.80;13.57;;;3.10;99.90;;;;;;4990932;28;20722;-66
2022/03/23 04:06:21;;;;;;;18.50;14.30;;;3.00;99.90;;;;;;4991152;28;20188;-68
2022/03/23 04:08:47;;;;;;;15.40;13.90;;;3.00;99.90;;;;;;4992084;28;20251;-65
2022/03/23 04:11:12;;;;;;;14.50;12.97;;;3.00;99.90;;;;;;4990401;28;20187;-67
2022/03/23 04:13:38;;;;;;;16.17;14.47;;;3.00;99.90;;;;;;4990434;28;20587;-67
2022/03/23 04:16:04;;;;;;;15.83;14.13;;;3.00;99.90;;;;;;4988041;28;20180;-67
2022/03/23 04:18:29;;;;;;;15.20;13.60;;;2.90;99.90;;;;;;4990186;28;20692;-67
2022/03/23 04:20:56;;;;;;;17.30;14.10;;;3.00;99.90;;;;;;4991406;28;20445;-66
2022/03/23 04:23:21;;;;;;;16.08;14.40;;;3.00;99.90;;;;;;4991231;28;20280;-66
2022/03/23 04:25:47;;;;;;;22.27;14.90;;;2.90;99.90;;;;;;4993075;28;20259;-67
2022/03/23 04:28:12;;;;;;;23.53;15.20;;;2.90;99.90;;;;;;4990808;28;20204;-66
2022/03/23 04:30:39;;;;;;;15.93;14.20;;;2.90;99.90;;;;;;4991138;28;20184;-68
2022/03/23 04:33:05;;;;;;;17.20;14.43;;;2.90;99.90;;;;;;4990222;28;20200;-67
2022/03/23 04:35:30;;;;;;;18.00;14.13;;;2.80;99.90;;;;;;4960551;28;20224;-67
2022/03/23 04:37:56;;;;;;;15.73;13.47;;;2.80;52.20;;;;;;4991412;28;20199;-67
2022/03/23 04:40:22;;;;;;;17.20;15.00;;;2.90;72.80;;;;;;4990026;28;20199;-67
2022/03/23 04:42:49;;;;;;;15.88;13.50;;;2.90;99.90;;;;;;4991461;28;20207;-68
2022/03/23 04:45:15;;;;;;;17.00;14.98;;;2.80;99.90;;;;;;4989989;28;20183;-68
2022/03/23 04:47:43;;;;;;;17.37;14.73;;;2.80;99.90;;;;;;4992013;28;20188;-68
2022/03/23 04:50:10;;;;;;;16.27;14.57;;;2.70;99.90;;;;;;4990492;28;20196;-68
2022/03/23 04:52:38;;;;;;;17.00;14.65;;;2.70;99.90;;;;;;4990870;28;20187;-67
2022/03/23 04:55:05;;;;;;;17.10;14.70;;;2.70;99.90;;;;;;4989580;28;20206;-67
2022/03/23 04:57:30;;;;;;;16.88;14.13;;;2.60;99.90;;;;;;4991381;28;20185;-68
2022/03/23 04:59:58;;;;;;;17.53;14.50;;;2.60;99.90;;;;;;4992713;28;20204;-66
2022/03/23 05:02:24;;;;;;;18.02;15.15;;;2.60;99.90;;;;;;4991648;28;20666;-66
2022/03/23 05:04:49;;;;;;;17.23;15.20;;;2.60;99.90;;;;;;4990364;28;20189;-67
2022/03/23 05:07:15;;;;;;;16.77;14.93;;;2.60;99.90;;;;;;4988891;28;20473;-67
2022/03/23 05:09:40;;;;;;;19.03;14.70;;;2.70;51.90;;;;;;4989280;28;20204;-65
2022/03/23 05:12:07;;;;;;;16.13;14.43;;;2.60;22.10;;;;;;4991138;28;20195;-66
2022/03/23 05:14:32;;;;;;;16.73;14.68;;;2.70;18.60;;;;;;4989421;28;20740;-66
2022/03/23 05:16:58;;;;;;;19.77;15.50;;;2.70;53.10;;;;;;4990355;28;20176;-67
2022/03/23 05:19:23;;;;;;;17.00;13.83;;;2.70;1.00;;;;;;4985421;28;20279;-67
2022/03/23 05:21:49;;;;;;;16.63;14.30;;;2.70;1.00;;;;;;4985516;28;20188;-65
2022/03/23 05:24:15;;;;;;;17.67;15.10;;;2.70;1.00;;;;;;4985512;28;20224;-67
2022/03/23 05:26:40;;;;;;;17.80;15.27;;;2.70;19.60;;;;;;4974189;28;20216;-66
2022/03/23 05:29:06;;;;;;;19.60;15.00;;;2.80;50.60;;;;;;4975642;28;21442;-67
2022/03/23 05:31:31;;;;;;;16.57;14.90;;;2.80;10.10;;;;;;4973195;28;20180;-66
2022/03/23 05:33:57;;;;;;;16.30;14.53;;;2.80;1.00;;;;;;4969844;28;21579;-65
2022/03/23 05:36:22;;;;;;;16.97;14.23;;;2.80;1.00;;;;;;4972474;28;20189;-65
2022/03/23 05:38:48;;;;;;;19.20;14.23;;;2.80;1.00;;;;;;4966469;28;20187;-68
2022/03/23 05:41:14;;;;;;;17.40;14.90;;;2.90;1.00;;;;;;4977606;28;20180;-67
2022/03/23 05:43:39;;;;;;;18.60;15.13;;;2.90;1.00;;;;;;4986207;28;20196;-68
2022/03/23 05:46:05;;;;;;;21.10;16.40;;;2.90;1.00;;;;;;4984117;28;20459;-67
2022/03/23 05:48:31;;;;;;;16.90;15.20;;;3.00;1.00;;;;;;4987828;28;20219;-67
2022/03/23 05:50:56;;;;;;;17.33;15.40;;;3.00;1.00;;;;;;4990367;28;20187;-67
2022/03/23 05:53:22;;;;;;;16.37;14.70;;;3.00;1.00;;;;;;4990489;28;20188;-67
2022/03/23 05:55:47;;;;;;;16.33;14.50;;;3.10;1.00;;;;;;4989768;28;20176;-67
2022/03/23 05:58:13;;;;;;;17.23;15.10;;;3.10;1.00;;;;;;4988564;28;20188;-67
2022/03/23 06:00:38;;;;;;;16.37;14.50;;;3.20;1.00;;;;;;4989725;28;20642;-67
2022/03/23 06:03:04;;;;;;;17.33;15.10;;;3.30;1.00;;;;;;4978666;28;20184;-67
2022/03/23 06:05:29;;;;;;;19.00;15.80;;;3.40;1.00;;;;;;4968770;28;20512;-67
2022/03/23 06:07:55;;;;;;;15.87;13.63;;;3.40;1.00;;;;;;4989101;28;20184;-67
2022/03/23 06:10:20;;;;;;;16.40;14.63;;;3.50;1.00;;;;;;4990616;28;20185;-67
2022/03/23 06:12:46;;;;;;;16.70;14.87;;;3.60;1.00;;;;;;4969724;28;20192;-67
2022/03/23 06:15:11;;;;;;;18.77;15.80;;;3.70;1.00;;;;;;4984156;28;20212;-66
2022/03/23 06:17:37;;;;;;;18.40;15.83;;;3.80;1.00;;;;;;4989955;28;20184;-67
2022/03/23 06:20:05;;;;;;;18.60;15.48;;;3.90;1.00;;;;;;4992363;28;20181;-66
2022/03/23 06:22:31;;;;;;;18.35;14.82;;;4.00;1.00;;;;;;5001425;28;20204;-66
2022/03/23 06:24:56;;;;;;;19.20;15.20;;;4.10;1.00;;;;;;4971249;28;20211;-68
2022/03/23 06:27:22;;;;;;;17.13;14.60;;;4.20;1.00;;;;;;4990972;28;20184;-67
2022/03/23 06:29:48;;;;;;;21.30;15.43;;;4.30;1.00;;;;;;4987974;28;20533;-67
2022/03/23 06:32:14;;;;;;;17.40;14.87;;;4.40;1.00;;;;;;4984217;28;20437;-64
2022/03/23 06:34:39;;;;;;;19.52;15.75;;;4.50;1.00;;;;;;4986649;28;20191;-67
2022/03/23 06:37:05;;;;;;;20.73;14.60;;;4.60;1.00;;;;;;4989054;28;20184;-65
2022/03/23 06:39:32;;;;;;;19.03;16.83;;;4.60;1.00;;;;;;4989197;28;20192;-67
2022/03/23 06:41:58;;;;;;;20.35;16.17;;;4.80;1.00;;;;;;4987565;28;20431;-67
2022/03/23 06:44:23;;;;;;;17.90;14.97;;;4.80;1.00;;;;;;4984395;28;20188;-67
2022/03/23 06:46:49;;;;;;;20.70;16.57;;;4.90;1.00;;;;;;4988083;28;20936;-68
2022/03/23 06:49:16;;;;;;;20.83;15.23;;;5.00;1.00;;;;;;4986558;28;20211;-67
2022/03/23 06:51:42;;;;;;;17.83;15.27;;;5.20;1.00;;;;;;4988687;28;20287;-66
2022/03/23 06:54:08;;;;;;;19.17;17.08;;;5.30;1.00;;;;;;4990270;28;20198;-67
2022/03/23 06:56:33;;;;;;;25.60;16.57;;;5.40;1.00;;;;;;4991857;28;20176;-66
2022/03/23 06:58:59;;;;;;;18.30;16.40;;;5.50;1.00;;;;;;4988941;28;20331;-66
2022/03/23 07:01:24;;;;;;;20.43;17.27;;;5.60;1.00;;;;;;4988714;28;20203;-66
2022/03/23 07:03:50;;;;;;;18.63;16.57;;;5.80;1.00;;;;;;4989020;28;20184;-65
2022/03/23 07:06:16;;;;;;;20.83;16.43;;;5.90;1.00;;;;;;4985968;28;20196;-67
2022/03/23 07:11:27;;;;;;;22.20;17.83;;;6.20;99.90;;;;;;4989210;28;20183;-65
2022/03/23 07:13:53;;;;;;;19.77;17.67;;;6.40;99.90;;;;;;4988859;28;20228;-66
2022/03/23 07:16:19;;;;;;;21.03;17.70;;;6.50;99.90;;;;;;4988803;28;20455;-66
2022/03/23 07:18:44;;;;;;;18.07;16.17;;;6.60;99.90;;;;;;4988307;28;20192;-66
2022/03/23 07:21:10;;;;;;;19.33;17.33;;;6.80;99.90;;;;;;4981730;28;20458;-66
2022/03/23 07:23:36;;;;;;;21.13;18.00;;;6.90;99.90;;;;;;4990415;28;20258;-67
2022/03/23 07:26:02;;;;;;;20.40;18.20;;;7.00;99.90;;;;;;4992334;28;20180;-66
2022/03/23 07:28:28;;;;;;;18.40;16.30;;;7.20;99.90;;;;;;4994907;28;20259;-67
2022/03/23 07:30:54;;;;;;;20.37;17.57;;;7.50;99.90;;;;;;4988493;28;20420;-65
2022/03/23 07:33:19;;;;;;;20.17;17.57;;;7.60;99.90;;;;;;4994511;28;20184;-65
2022/03/23 07:35:45;;;;;;;20.17;17.70;;;7.70;99.90;;;;;;4999182;28;20215;-66
2022/03/23 07:38:11;;;;;;;20.67;17.60;;;7.80;99.90;;;;;;4988416;28;20591;-66
2022/03/23 07:40:36;;;;;;;20.30;18.13;;;7.90;99.90;;;;;;4989571;28;20412;-66
2022/03/23 07:43:02;;;;;;;21.53;17.43;;;8.10;99.90;;;;;;4989546;28;20192;-66
2022/03/23 07:45:28;;;;;;;20.70;17.00;;;8.30;99.90;;;;;;4993376;28;20184;-66
2022/03/23 07:47:53;;;;;;;20.60;18.40;;;8.40;99.90;;;;;;4992051;28;20904;-65
2022/03/23 07:50:19;;;;;;;20.40;18.27;;;8.60;99.90;;;;;;5007301;28;20712;-66
2022/03/23 07:52:44;;;;;;;20.50;17.97;;;8.70;99.90;;;;;;4983039;28;20550;-66
2022/03/23 07:55:10;;;;;;;19.53;17.47;;;9.00;99.90;;;;;;4980827;28;20177;-66
2022/03/23 07:57:35;;;;;;;19.57;17.33;;;9.10;99.90;;;;;;4963715;28;20632;-65
2022/03/23 08:00:02;;;;;;;19.17;17.17;;;9.30;99.90;;;;;;4999743;28;20192;-65
2022/03/23 08:02:27;;;;;;;19.13;17.13;;;9.50;99.90;;;;;;5006320;28;20186;-66
2022/03/23 08:04:54;;;;;;;18.23;16.33;;;9.70;99.90;;;;;;5006237;28;20403;-64
2022/03/23 08:07:20;;;;;;;20.47;18.37;;;9.90;99.90;;;;;;4990057;28;20204;-64
2022/03/23 08:09:45;;;;;;;18.83;16.93;;;10.10;99.90;;;;;;4998061;28;20456;-64
2022/03/23 08:12:11;;;;;;;19.50;17.40;;;10.30;99.90;;;;;;5007419;28;20241;-65
2022/03/23 08:14:37;;;;;;;19.50;17.40;;;10.50;99.90;;;;;;4994407;28;20224;-66
2022/03/23 08:17:03;;;;;;;20.30;17.40;;;10.70;99.90;;;;;;5006273;28;20469;-65
2022/03/23 08:19:28;;;;;;;20.37;17.80;;;10.90;99.90;;;;;;5004433;28;20195;-65
2022/03/23 08:21:54;;;;;;;19.70;17.53;;;11.00;99.90;;;;;;4992565;28;20185;-65
2022/03/23 08:24:20;;;;;;;19.70;17.80;;;11.30;99.90;;;;;;4993803;28;20184;-64
2022/03/23 08:26:46;;;;;;;19.43;17.40;;;11.70;99.90;;;;;;4993353;28;20184;-64
2022/03/23 08:29:12;;;;;;;21.00;18.50;;;11.90;99.90;;;;;;4992419;28;20204;-65
2022/03/23 08:31:38;;;;;;;19.73;17.70;;;12.40;99.90;;;;;;4977255;28;20892;-64
2022/03/23 08:34:04;;;;;;;19.03;17.03;;;13.00;99.90;;;;;;4973535;28;20186;-65
2022/03/23 08:36:30;;;;;;;18.23;16.50;;;13.60;99.90;;;;;;4983468;28;20424;-65
2022/03/23 08:38:55;;;;;;;19.10;17.30;;;14.20;99.90;;;;;;4993570;28;20445;-64
2022/03/23 08:41:22;;;;;;;20.20;18.43;;;14.90;99.90;;;;;;4983196;28;20182;-64
2022/03/23 08:43:48;;;;;;;18.93;17.13;;;15.50;99.90;;;;;;4976274;28;20205;-64
2022/03/23 08:46:13;;;;;;;19.20;17.40;;;16.30;99.90;;;;;;4976559;28;20442;-64
2022/03/23 08:48:40;;;;;;;19.47;17.67;;;17.00;99.90;;;;;;4973944;28;20464;-65
2022/03/23 08:51:06;;;;;;;19.23;17.43;;;17.90;99.90;;;;;;4979230;28;20185;-62
2022/03/23 08:53:31;;;;;;;19.90;18.10;;;18.40;99.90;;;;;;4973338;28;20423;-62
2022/03/23 08:55:57;;;;;;;18.77;17.07;;;18.60;99.90;;;;;;4976281;28;20410;-62
2022/03/23 08:58:23;;;;;;;19.87;18.07;;;18.80;99.90;;;;;;4975004;28;20184;-62
2022/03/23 09:00:49;;;;;;;20.03;18.03;;;19.80;99.90;;;;;;4977744;28;20248;-64
2022/03/23 09:03:15;;;;;;;19.10;17.40;;;20.90;99.90;;;;;;4977271;28;20427;-64
2022/03/23 09:05:40;;;;;;;19.23;17.73;;;21.70;99.90;;;;;;4975964;28;20181;-62
2022/03/23 09:08:08;;;;;;;18.73;16.93;;;21.60;99.90;;;;;;4988683;28;20679;-62
2022/03/23 09:10:34;;;;;;;17.47;15.97;;;22.20;99.90;;;;;;4984798;28;20423;-62
2022/03/23 09:12:59;;;;;;;18.23;16.63;;;22.80;99.90;;;;;;4989985;28;20560;-62
2022/03/23 09:15:26;;;;;;;17.80;16.20;;;23.30;99.90;;;;;;4979060;28;20567;-63
2022/03/23 09:17:52;;;;;;;17.93;16.43;;;24.10;99.90;;;;;;4983178;28;20199;-63
2022/03/23 09:20:17;;;;;;;18.73;17.13;;;24.20;99.90;;;;;;4985810;28;20938;-63
2022/03/23 09:22:44;;;;;;;18.37;16.77;;;24.40;99.90;;;;;;4986807;28;20417;-63
2022/03/23 09:25:12;;;;;;;18.00;16.60;;;25.20;99.90;;;;;;4991184;28;20184;-63
2022/03/23 09:27:42;;;;;;;17.93;16.50;;;25.20;99.90;;;;;;4989362;28;20438;-63
2022/03/23 09:30:10;;;;;;;18.03;16.63;;;25.50;99.90;;;;;;4991216;28;20536;-63
2022/03/23 09:32:36;;;;;;;17.90;16.40;;;25.70;99.90;;;;;;4992685;28;20487;-63
2022/03/23 09:35:02;;;;;;;17.97;16.53;;;25.20;99.90;;;;;;4990466;28;20437;-63
2022/03/23 09:40:12;;;;;;;18.37;16.97;;;25.80;99.90;;;;;;4991936;28;20480;-63
2022/03/23 09:42:40;;;;;;;17.53;16.03;;;26.20;99.90;;;;;;4989860;28;20529;-63
2022/03/23 09:45:06;;;;;;;18.77;17.33;;;25.80;99.90;;;;;;4991847;28;20489;-63
2022/03/23 09:47:31;;;;;;;18.13;16.63;;;25.40;99.90;;;;;;4989020;28;21294;-63
2022/03/23 09:49:57;;;;;;;18.50;16.70;;;25.80;99.90;;;;;;4988695;28;20533;-63
2022/03/23 09:52:22;;;;;;;17.40;15.70;;;26.40;99.90;;;;;;4988824;28;20215;-63
2022/03/23 09:54:48;;;;;;;18.10;16.57;;;26.30;99.90;;;;;;4991181;28;20676;-63
2022/03/23 09:57:14;;;;;;;17.90;16.50;;;26.30;99.90;;;;;;4990281;28;20677;-63
2022/03/23 09:59:40;;;;;;;17.13;15.73;;;26.50;99.90;;;;;;4991000;28;20192;-63
2022/03/23 10:02:26;;;;;;;17.47;15.97;;;26.80;99.90;;;;;;4990510;28;20966;-63
2022/03/23 10:05:10;;;;;;;17.57;16.17;;;27.00;99.90;;;;;;4990085;28;20434;-63
2022/03/23 10:08:17;;;;;;;16.87;15.60;;;26.90;99.90;;;;;;4986774;28;20431;-63
2022/03/23 10:11:24;;;;;;;18.23;16.83;;;27.30;99.90;;;;;;4964540;28;20921;-63
2022/03/23 10:14:44;;;;;;;19.03;17.57;;;27.70;99.90;;;;;;4988654;28;20475;-63
2022/03/23 10:17:47;;;;;;;18.77;17.20;;;27.20;99.90;;;;;;4988211;28;20852;-63
2022/03/23 10:20:14;;;;;;;17.87;16.37;;;27.30;99.90;;;;;;4987155;28;20470;-64
2022/03/23 10:22:51;;;;;;;16.27;15.07;;;28.30;99.90;;;;;;4987454;28;20435;-63
2022/03/23 10:25:18;;;;;;;18.50;16.87;;;28.20;99.90;;;;;;4987309;28;20442;-63
2022/03/23 10:27:44;;;;;;;19.03;17.53;;;28.30;99.90;;;;;;4988278;28;20542;-63
2022/03/23 10:30:10;;;;;;;19.03;17.50;;;28.70;99.90;;;;;;4988580;28;20506;-63
2022/03/23 10:32:37;;;;;;;18.33;16.90;;;28.90;99.90;;;;;;4989275;28;20582;-63
2022/03/23 10:35:09;;;;;;;18.13;16.63;;;28.90;99.90;;;;;;4989658;28;20502;-63
2022/03/23 10:37:35;;;;;;;18.07;16.67;;;28.40;99.90;;;;;;4988602;28;20757;-63
2022/03/23 10:40:06;;;;;;;18.87;17.43;;;28.40;99.90;;;;;;4989790;28;20427;-63
2022/03/23 10:42:34;;;;;;;20.03;18.53;;;28.90;99.90;;;;;;4986924;28;20184;-63
2022/03/23 10:45:10;;;;;;;19.13;17.23;;;29.40;99.90;;;;;;4986554;28;20466;-62
2022/03/23 10:47:38;;;;;;;20.67;19.10;;;29.70;99.90;;;;;;4988763;28;20964;-62
2022/03/23 10:50:19;;;;;;;19.20;17.43;;;29.90;99.90;;;;;;4969328;28;20489;-63
2022/03/23 10:53:02;;;;;;;18.77;17.27;;;30.30;99.90;;;;;;4982748;28;20427;-62
2022/03/23 10:55:35;;;;;;;19.37;17.90;;;30.70;99.90;;;;;;4986960;28;20432;-63
2022/03/23 10:58:00;;;;;;;18.20;16.80;;;30.40;99.90;;;;;;4983907;28;20453;-62
2022/03/23 11:00:31;;;;;;;18.40;16.90;;;30.30;99.90;;;;;;4976579;28;20427;-63
2022/03/23 11:02:57;;;;;;;18.30;16.70;;;30.20;99.90;;;;;;4982532;28;20658;-63
2022/03/23 11:05:43;;;;;;;17.87;16.53;;;30.10;99.90;;;;;;4989476;28;20885;-62
2022/03/23 11:08:18;;;;;;;17.90;16.50;;;30.00;99.90;;;;;;4985952;28;20783;-63
2022/03/23 11:16:36;;;;;;;16.80;15.50;;;30.50;99.90;;;;;;4990233;28;20429;-62
2022/03/23 11:19:10;;;;;;;17.53;16.23;;;30.40;99.90;;;;;;4988582;28;20434;-63
2022/03/23 11:21:58;;;;;;;17.30;15.90;;;30.80;99.90;;;;;;4983385;28;20414;-62
2022/03/23 11:24:24;;;;;;;16.90;15.50;;;31.10;99.90;;;;;;4992423;28;20422;-63
2022/03/23 11:26:52;;;;;;;17.40;16.10;;;31.20;99.90;;;;;;4991888;28;20436;-62
2022/03/23 11:29:18;;;;;;;17.00;15.27;;;32.00;99.90;;;;;;4993077;28;20764;-62
2022/03/23 11:31:45;;;;;;;16.93;15.63;;;31.80;99.90;;;;;;4984485;28;20538;-62
2022/03/23 11:34:13;;;;;;;17.43;16.03;;;32.30;99.90;;;;;;4974499;28;20419;-62
2022/03/23 11:36:40;;;;;;;17.03;15.73;;;32.10;99.90;;;;;;4989927;28;20569;-63
2022/03/23 11:39:06;;;;;;;17.33;16.03;;;31.60;99.90;;;;;;4991691;28;20458;-63
2022/03/23 11:41:34;;;;;;;16.63;15.33;;;30.70;99.90;;;;;;4985500;28;20433;-63
2022/03/23 11:44:00;;;;;;;17.53;16.23;;;30.50;99.90;;;;;;4981926;28;20181;-62
2022/03/23 11:46:26;;;;;;;16.70;15.40;;;30.80;99.90;;;;;;4973301;28;20454;-63
2022/03/23 11:49:22;;;;;;;15.87;14.50;;;30.90;99.90;;;;;;4988526;28;20203;-62
2022/03/23 11:51:57;;;;;;;16.73;15.33;;;31.80;99.90;;;;;;4993338;28;20445;-62
2022/03/23 11:57:56;;;;;;;16.27;14.93;;;32.30;99.90;;;;;;4991642;28;20756;-62
2022/03/23 12:00:27;;;;;;;15.23;14.07;;;32.20;99.90;;;;;;4988363;28;20450;-62
2022/03/23 12:02:56;;;;;;;16.73;15.43;;;32.10;99.90;;;;;;4985477;28;21183;-62
2022/03/23 12:05:22;;;;;;;16.93;15.63;;;32.50;99.90;;;;;;4991601;28;20428;-62
2022/03/23 12:07:47;;;;;;;17.57;16.17;;;32.10;99.90;;;;;;4992954;28;20414;-62
2022/03/23 12:10:20;;;;;;;17.57;16.20;;;32.90;99.90;;;;;;4990535;28;20191;-62
2022/03/23 12:12:46;;;;;;;18.20;16.80;;;32.70;99.90;;;;;;4982982;28;20271;-62
2022/03/23 12:15:24;;;;;;;16.77;15.43;;;32.80;99.90;;;;;;4993005;28;20557;-63
2022/03/23 12:17:58;;;;;;;16.37;14.97;;;32.30;99.90;;;;;;4992996;28;20188;-62
2022/03/23 12:20:31;;;;;;;16.13;14.93;;;32.40;99.90;;;;;;4993538;28;21058;-62
2022/03/23 12:23:29;;;;;;;16.83;15.53;;;32.10;99.90;;;;;;4991672;28;20411;-63
2022/03/23 12:26:14;;;;;;;16.23;15.03;;;31.80;99.90;;;;;;4976595;28;20511;-62
2022/03/23 12:28:55;;;;;;;17.47;16.07;;;32.30;99.90;;;;;;4985387;28;20437;-62
2022/03/23 12:31:21;;;;;;;17.47;16.10;;;32.10;99.90;;;;;;4991880;28;20443;-62
2022/03/23 12:34:16;;;;;;;16.20;15.00;;;32.80;99.90;;;;;;4990635;28;20943;-62
2022/03/23 12:37:02;;;;;;;15.93;14.83;;;33.40;99.90;;;;;;4987183;28;20435;-63
2022/03/23 12:39:45;;;;;;;18.20;16.80;;;33.40;99.90;;;;;;4984874;28;20470;-63
2022/03/23 12:42:15;;;;;;;18.73;16.97;;;33.20;99.90;;;;;;4986286;28;20414;-63
2022/03/23 12:44:56;;;;;;;19.07;17.67;;;33.20;99.90;;;;;;4991135;28;20510;-62
2022/03/23 12:47:27;;;;;;;18.83;17.43;;;33.10;99.90;;;;;;4992541;28;20422;-62
2022/03/23 12:58:16;;;;;;;19.90;18.27;;;32.70;99.90;;;;;;4991769;28;21158;-62
2022/03/23 13:00:49;;;;;;;19.27;17.67;;;32.90;99.90;;;;;;4989305;28;20414;-62
2022/03/23 13:03:20;;;;;;;19.97;18.30;;;32.80;99.90;;;;;;4985201;28;20437;-63
2022/03/23 13:05:57;;;;;;;18.93;17.33;;;32.70;99.90;;;;;;4988638;28;20928;-63
2022/03/23 13:08:38;;;;;;;19.80;18.33;;;33.00;99.90;;;;;;4989309;28;20422;-63
2022/03/23 13:11:06;;;;;;;19.60;17.97;;;32.60;99.90;;;;;;4991665;28;20411;-63
2022/03/23 13:13:36;;;;;;;20.20;18.60;;;32.50;99.90;;;;;;4990609;28;20483;-63